Terminal Aerodrome Forecast
Issued by NWS

Home | Current Version | Previous Version | Graphics & Text | Print | Product List | Glossary On
Versions: 1 2 3 4 5 6 7 8 9 10 11 12 13
000
FTUS43 KMPX 302007 AAA
TAFRWF
TAF AMD
KRWF 302007Z 3020/3118 36011G18KT P6SM SKC
     FM310100 05007KT P6SM SKC
     FM311500 12008KT P6SM BKN250=

USA.gov is the U.S. government's official web portal to all federal, state and local government web resources and services.